createdAt,value
2019-05-02T00:00:46.409Z,966.73
2019-05-02T00:01:46.084Z,966.74
2019-05-02T00:02:46.152Z,966.72
2019-05-02T00:03:46.177Z,966.73
2019-05-02T00:04:46.231Z,966.69
2019-05-02T00:05:46.289Z,966.71
2019-05-02T00:06:46.359Z,966.75
2019-05-02T00:07:46.433Z,966.73
2019-05-02T00:08:46.402Z,966.73
2019-05-02T00:09:48.583Z,966.71
2019-05-02T00:10:46.529Z,966.72
2019-05-02T00:11:58.322Z,966.73
2019-05-02T00:12:46.611Z,966.70
2019-05-02T00:13:46.632Z,966.67
2019-05-02T00:14:46.698Z,966.68
2019-05-02T00:15:46.742Z,966.66
2019-05-02T00:16:49.414Z,966.65
2019-05-02T00:17:46.816Z,966.68
2019-05-02T00:18:46.861Z,966.63
2019-05-02T00:19:49.842Z,966.58
2019-05-02T00:20:46.972Z,966.61
2019-05-02T00:21:47.081Z,966.59
2019-05-02T00:22:48.130Z,966.58
2019-05-02T00:23:47.090Z,966.55
2019-05-02T00:24:47.130Z,966.58
2019-05-02T00:25:52.081Z,966.56
2019-05-02T00:26:47.223Z,966.63
2019-05-02T00:27:47.291Z,966.54
2019-05-02T00:28:47.911Z,966.57
2019-05-02T00:29:47.361Z,966.59
2019-05-02T00:30:47.419Z,966.55
2019-05-02T00:31:48.871Z,966.54
2019-05-02T00:32:47.493Z,966.56
2019-05-02T00:33:47.544Z,966.54
2019-05-02T00:34:47.585Z,966.52
2019-05-02T00:35:47.673Z,966.58
2019-05-02T00:36:47.697Z,966.53
2019-05-02T00:37:47.718Z,966.52
2019-05-02T00:38:47.765Z,966.51
2019-05-02T00:39:49.245Z,966.45
2019-05-02T00:40:47.865Z,966.46
2019-05-02T00:41:47.931Z,966.42
2019-05-02T00:42:47.954Z,966.43
2019-05-02T00:43:48.006Z,966.42
2019-05-02T00:44:48.307Z,966.39
2019-05-02T00:45:48.085Z,966.35
2019-05-02T00:46:48.174Z,966.37
2019-05-02T00:47:49.773Z,966.34
2019-05-02T00:48:48.223Z,966.30
2019-05-02T00:49:48.262Z,966.32
2019-05-02T00:50:50.627Z,966.32
2019-05-02T00:51:48.461Z,966.31
2019-05-02T00:52:48.391Z,966.28
2019-05-02T00:53:49.490Z,966.30
2019-05-02T00:54:48.490Z,966.33
2019-05-02T00:55:48.555Z,966.34
2019-05-02T00:56:48.631Z,966.35
2019-05-02T00:57:50.847Z,966.34
2019-05-02T00:58:48.738Z,966.32
2019-05-02T00:59:48.714Z,966.33
2019-05-02T01:00:52.839Z,966.31
2019-05-02T01:01:48.801Z,966.33
2019-05-02T01:02:48.907Z,966.35
2019-05-02T01:03:52.079Z,966.36
2019-05-02T01:04:48.939Z,966.33
2019-05-02T01:05:49.024Z,966.36
2019-05-02T01:06:50.701Z,966.36
2019-05-02T01:07:49.105Z,966.39
2019-05-02T01:08:49.113Z,966.37
2019-05-02T01:09:49.173Z,966.40
2019-05-02T01:10:52.166Z,966.44
2019-05-02T01:11:49.247Z,966.42
2019-05-02T01:12:49.361Z,966.41
2019-05-02T01:13:50.394Z,966.43
2019-05-02T01:14:49.431Z,966.42
2019-05-02T01:15:49.438Z,966.43
2019-05-02T01:16:53.882Z,966.45
2019-05-02T01:17:49.580Z,966.46
2019-05-02T01:18:49.564Z,966.45
2019-05-02T01:19:51.479Z,966.43
2019-05-02T01:20:49.650Z,966.46
2019-05-02T01:21:49.711Z,966.45
2019-05-02T01:22:52.194Z,966.42
2019-05-02T01:23:49.787Z,966.44
2019-05-02T01:24:49.836Z,966.44
2019-05-02T01:25:52.724Z,966.40
2019-05-02T01:26:49.923Z,966.44
2019-05-02T01:27:49.992Z,966.44
2019-05-02T01:28:54.246Z,966.45
2019-05-02T01:29:50.078Z,966.43
2019-05-02T01:30:50.109Z,966.43
2019-05-02T01:31:54.590Z,966.40
2019-05-02T01:32:50.261Z,966.40
2019-05-02T01:33:50.255Z,966.44
2019-05-02T01:34:54.426Z,966.39
2019-05-02T01:35:50.355Z,966.42
2019-05-02T01:36:50.369Z,966.36
2019-05-02T01:37:51.068Z,966.42
2019-05-02T01:38:50.500Z,966.39
2019-05-02T01:39:50.509Z,966.38
2019-05-02T01:40:53.086Z,966.35
2019-05-02T01:41:50.597Z,966.37
2019-05-02T01:42:51.100Z,966.37
2019-05-02T01:43:54.995Z,966.36
2019-05-02T01:44:50.734Z,966.35
2019-05-02T01:45:50.778Z,966.40
2019-05-02T01:46:54.077Z,966.38
2019-05-02T01:47:50.871Z,966.40
2019-05-02T01:48:50.938Z,966.45
2019-05-02T01:49:51.936Z,966.43
2019-05-02T01:50:51.004Z,966.47
2019-05-02T01:51:51.055Z,966.46
2019-05-02T01:52:53.745Z,966.45
2019-05-02T01:53:51.301Z,966.47
2019-05-02T01:54:51.176Z,966.47
2019-05-02T01:55:51.898Z,966.47
2019-05-02T01:56:51.278Z,966.47
2019-05-02T01:57:51.310Z,966.48
2019-05-02T01:58:53.125Z,966.46
2019-05-02T01:59:51.410Z,966.43
2019-05-02T02:00:51.449Z,966.45
2019-05-02T02:01:53.106Z,966.44
2019-05-02T02:02:51.535Z,966.49
2019-05-02T02:03:51.602Z,966.47
2019-05-02T02:04:52.116Z,966.49
2019-05-02T02:05:51.673Z,966.45
2019-05-02T02:06:51.743Z,966.51
2019-05-02T02:07:55.625Z,966.53
2019-05-02T02:08:51.809Z,966.53
2019-05-02T02:09:51.871Z,966.56
2019-05-02T02:10:56.067Z,966.52
2019-05-02T02:11:51.941Z,966.52
2019-05-02T02:13:03.677Z,966.51
2019-05-02T02:13:52.032Z,966.54
2019-05-02T02:14:53.442Z,966.53
2019-05-02T02:15:52.131Z,966.56
2019-05-02T02:16:52.163Z,966.55
2019-05-02T02:17:52.670Z,966.58
2019-05-02T02:18:52.252Z,966.59
2019-05-02T02:19:52.327Z,966.55
2019-05-02T02:20:52.343Z,966.59
2019-05-02T02:21:52.417Z,966.54
2019-05-02T02:22:52.438Z,966.55
2019-05-02T02:23:52.488Z,966.55
2019-05-02T02:24:55.942Z,966.55
2019-05-02T02:25:52.617Z,966.54
2019-05-02T02:26:52.611Z,966.54
2019-05-02T02:27:54.896Z,966.54
2019-05-02T02:28:52.698Z,966.52
2019-05-02T02:29:52.766Z,966.52
2019-05-02T02:30:57.865Z,966.51
2019-05-02T02:31:52.829Z,966.54
2019-05-02T02:32:52.878Z,966.51
2019-05-02T02:33:52.924Z,966.54
2019-05-02T02:34:52.996Z,966.51
2019-05-02T02:35:53.030Z,966.53
2019-05-02T02:36:53.056Z,966.51
2019-05-02T02:37:55.704Z,966.53
2019-05-02T02:38:53.166Z,966.56
2019-05-02T02:39:54.206Z,966.52
2019-05-02T02:40:53.232Z,966.56
2019-05-02T02:41:54.242Z,966.53
2019-05-02T02:42:53.329Z,966.55
2019-05-02T02:43:54.639Z,966.54
2019-05-02T02:44:53.471Z,966.54
2019-05-02T02:45:57.804Z,966.51
2019-05-02T02:46:53.500Z,966.52
2019-05-02T02:47:59.935Z,966.52
2019-05-02T02:48:53.617Z,966.50
2019-05-02T02:49:56.009Z,966.53
2019-05-02T02:50:53.692Z,966.52
2019-05-02T02:51:57.949Z,966.53
2019-05-02T02:52:53.766Z,966.50
2019-05-02T02:54:02.871Z,966.51
2019-05-02T02:54:53.865Z,966.54
2019-05-02T02:56:01.107Z,966.50
2019-05-02T02:56:53.982Z,966.50
2019-05-02T02:57:58.587Z,966.52
2019-05-02T02:58:54.034Z,966.51
2019-05-02T03:00:06.635Z,966.48
2019-05-02T03:00:54.139Z,966.46
2019-05-02T03:01:54.186Z,966.46
2019-05-02T03:02:54.210Z,966.48
2019-05-02T03:03:54.263Z,966.47
2019-05-02T03:04:54.305Z,966.46
2019-05-02T03:05:58.544Z,966.46
2019-05-02T03:06:54.411Z,966.41
2019-05-02T03:07:59.700Z,966.46
2019-05-02T03:08:54.468Z,966.43
2019-05-02T03:09:59.670Z,966.44
2019-05-02T03:10:54.557Z,966.41
2019-05-02T03:11:56.354Z,966.46
2019-05-02T03:12:54.650Z,966.41
2019-05-02T03:14:05.747Z,966.43
2019-05-02T03:14:54.735Z,966.44
2019-05-02T03:16:00.350Z,966.42
2019-05-02T03:16:54.869Z,966.39
2019-05-02T03:17:59.881Z,966.39
2019-05-02T03:18:54.907Z,966.39
2019-05-02T03:20:01.095Z,966.34
2019-05-02T03:20:54.998Z,966.35
2019-05-02T03:22:00.797Z,966.33
2019-05-02T03:22:55.122Z,966.34
2019-05-02T03:24:03.452Z,966.31
2019-05-02T03:24:55.178Z,966.32
2019-05-02T03:25:55.235Z,966.31
2019-05-02T03:26:55.826Z,966.30
2019-05-02T03:27:55.314Z,966.33
2019-05-02T03:28:58.460Z,966.29
2019-05-02T03:29:55.402Z,966.32
2019-05-02T03:30:55.445Z,966.31
2019-05-02T03:32:11.934Z,966.28
2019-05-02T03:33:06.347Z,966.27
2019-05-02T03:34:00.719Z,966.29
2019-05-02T03:34:55.615Z,966.23
2019-05-02T03:35:55.660Z,966.27
2019-05-02T03:37:03.480Z,966.21
2019-05-02T03:37:55.773Z,966.23
2019-05-02T03:38:55.790Z,966.21
2019-05-02T03:39:58.027Z,966.19
2019-05-02T03:40:55.878Z,966.20
2019-05-02T03:42:02.957Z,966.19
2019-05-02T03:42:55.999Z,966.22
2019-05-02T03:44:09.806Z,966.22
2019-05-02T03:45:03.632Z,966.22
2019-05-02T03:45:56.101Z,966.22
2019-05-02T03:47:02.340Z,966.22
2019-05-02T03:47:56.241Z,966.25
2019-05-02T03:49:05.858Z,966.23
2019-05-02T03:49:56.276Z,966.22
2019-05-02T03:50:56.314Z,966.21
2019-05-02T03:52:02.802Z,966.24
2019-05-02T03:52:56.449Z,966.19
2019-05-02T03:54:06.117Z,966.23
2019-05-02T03:54:56.495Z,966.24
2019-05-02T03:55:56.538Z,966.21
2019-05-02T03:56:56.587Z,966.23
2019-05-02T03:57:56.756Z,966.20
2019-05-02T03:58:58.187Z,966.22
2019-05-02T03:59:56.709Z,966.22
2019-05-02T04:01:01.678Z,966.23
2019-05-02T04:01:56.813Z,966.25
2019-05-02T04:03:00.340Z,966.24
2019-05-02T04:03:56.897Z,966.27
2019-05-02T04:05:00.664Z,966.25
2019-05-02T04:05:56.977Z,966.24
2019-05-02T04:07:01.161Z,966.24
2019-05-02T04:07:57.174Z,966.26
2019-05-02T04:09:00.008Z,966.24
2019-05-02T04:09:57.152Z,966.24
2019-05-02T04:10:59.533Z,966.20
2019-05-02T04:11:57.241Z,966.27
2019-05-02T04:12:58.424Z,966.25
2019-05-02T04:13:57.382Z,966.30
2019-05-02T04:14:57.452Z,966.30
2019-05-02T04:15:57.422Z,966.31
2019-05-02T04:16:57.454Z,966.28
2019-05-02T04:17:57.501Z,966.30
2019-05-02T04:18:58.385Z,966.30
2019-05-02T04:19:57.588Z,966.30
2019-05-02T04:20:57.631Z,966.29
2019-05-02T04:22:01.722Z,966.26
2019-05-02T04:22:57.720Z,966.29
2019-05-02T04:24:06.660Z,966.26
2019-05-02T04:24:57.818Z,966.26
2019-05-02T04:25:57.851Z,966.28
2019-05-02T04:26:57.920Z,966.30
2019-05-02T04:27:57.938Z,966.26
2019-05-02T04:28:58.028Z,966.26
2019-05-02T04:30:09.715Z,966.26
2019-05-02T04:30:58.063Z,966.25
2019-05-02T04:31:58.122Z,966.31
2019-05-02T04:32:58.213Z,966.28
2019-05-02T04:33:58.229Z,966.28
2019-05-02T04:34:58.269Z,966.32
2019-05-02T04:35:59.494Z,966.31
2019-05-02T04:37:01.185Z,966.26
2019-05-02T04:38:01.604Z,966.29
2019-05-02T04:38:59.597Z,966.33
2019-05-02T04:40:03.010Z,966.34
2019-05-02T04:40:59.156Z,966.33
2019-05-02T04:42:04.758Z,966.34
2019-05-02T04:43:02.074Z,966.33
2019-05-02T04:44:01.416Z,966.35
2019-05-02T04:45:14.236Z,966.36
2019-05-02T04:46:00.182Z,966.34
2019-05-02T04:47:02.641Z,966.41
2019-05-02T04:48:03.782Z,966.36
2019-05-02T04:48:59.075Z,966.33
2019-05-02T04:49:58.904Z,966.36
2019-05-02T04:51:08.850Z,966.37
2019-05-02T04:52:05.896Z,966.33
2019-05-02T04:52:59.344Z,966.31
2019-05-02T04:53:59.098Z,966.37
2019-05-02T04:55:08.149Z,966.36
2019-05-02T04:56:04.912Z,966.34
2019-05-02T04:57:02.548Z,966.40
2019-05-02T04:58:01.702Z,966.40
2019-05-02T04:59:01.811Z,966.39
2019-05-02T05:00:06.534Z,966.42
2019-05-02T05:01:01.829Z,966.41
2019-05-02T05:02:01.356Z,966.43
2019-05-02T05:02:59.516Z,966.45
2019-05-02T05:04:03.150Z,966.44
2019-05-02T05:04:59.583Z,966.47
2019-05-02T05:06:07.299Z,966.47
2019-05-02T05:07:01.185Z,966.45
2019-05-02T05:07:59.692Z,966.47
2019-05-02T05:09:04.107Z,966.47
2019-05-02T05:10:03.131Z,966.51
2019-05-02T05:10:59.831Z,966.49
2019-05-02T05:12:02.480Z,966.49
2019-05-02T05:12:59.909Z,966.51
2019-05-02T05:14:00.390Z,966.52
2019-05-02T05:15:00.488Z,966.52
2019-05-02T05:16:02.889Z,966.54
2019-05-02T05:17:00.090Z,966.55
2019-05-02T05:18:04.640Z,966.58
2019-05-02T05:19:00.227Z,966.59
2019-05-02T05:20:00.266Z,966.58
2019-05-02T05:21:00.290Z,966.57
2019-05-02T05:22:04.890Z,966.58
2019-05-02T05:23:00.370Z,966.54
2019-05-02T05:24:01.465Z,966.56
2019-05-02T05:25:00.443Z,966.58
2019-05-02T05:26:03.423Z,966.54
2019-05-02T05:27:00.542Z,966.57
2019-05-02T05:28:05.627Z,966.57
2019-05-02T05:29:00.625Z,966.57
2019-05-02T05:30:07.958Z,966.58
2019-05-02T05:31:00.734Z,966.60
2019-05-02T05:32:05.540Z,966.61
2019-05-02T05:33:00.807Z,966.61
2019-05-02T05:34:00.865Z,966.62
2019-05-02T05:35:03.237Z,966.62
2019-05-02T05:36:00.950Z,966.65
2019-05-02T05:37:03.608Z,966.65
2019-05-02T05:38:01.021Z,966.66
2019-05-02T05:39:03.026Z,966.62
2019-05-02T05:40:01.112Z,966.67
2019-05-02T05:41:02.984Z,966.64
2019-05-02T05:42:01.195Z,966.64
2019-05-02T05:43:02.715Z,966.61
2019-05-02T05:44:01.294Z,966.65
2019-05-02T05:45:03.969Z,966.64
2019-05-02T05:46:09.326Z,966.64
2019-05-02T05:47:01.442Z,966.70
2019-05-02T05:48:01.470Z,966.70
2019-05-02T05:49:01.520Z,966.70
2019-05-02T05:50:01.559Z,966.70
2019-05-02T05:51:01.928Z,966.71
2019-05-02T05:52:03.796Z,966.69
2019-05-02T05:53:01.693Z,966.75
2019-05-02T05:54:03.199Z,966.74
2019-05-02T05:55:04.781Z,966.71
2019-05-02T05:56:02.587Z,966.74
2019-05-02T05:57:01.889Z,966.73
2019-05-02T05:58:12.267Z,966.75
2019-05-02T05:59:01.973Z,966.76
2019-05-02T06:00:03.816Z,966.76
2019-05-02T06:01:02.049Z,966.71
2019-05-02T06:02:05.561Z,966.78
2019-05-02T06:03:12.977Z,966.79
2019-05-02T06:04:02.199Z,966.78
2019-05-02T06:05:03.723Z,966.78
2019-05-02T06:06:02.278Z,966.78
2019-05-02T06:07:03.325Z,966.77
2019-05-02T06:08:02.375Z,966.77
2019-05-02T06:09:02.433Z,966.80
2019-05-02T06:10:07.863Z,966.77
2019-05-02T06:11:02.503Z,966.78
2019-05-02T06:12:02.681Z,966.78
2019-05-02T06:13:05.146Z,966.78
2019-05-02T06:14:02.643Z,966.78
2019-05-02T06:15:03.814Z,966.78
2019-05-02T06:16:03.424Z,966.79
2019-05-02T06:17:02.817Z,966.80
2019-05-02T06:18:04.850Z,966.78
2019-05-02T06:19:02.900Z,966.74
2019-05-02T06:20:02.923Z,966.77
2019-05-02T06:21:03.188Z,966.77
2019-05-02T06:22:03.031Z,966.76
2019-05-02T06:23:03.079Z,966.77
2019-05-02T06:24:03.114Z,966.75
2019-05-02T06:25:08.079Z,966.74
2019-05-02T06:26:08.075Z,966.76
2019-05-02T06:27:03.262Z,966.74
2019-05-02T06:28:05.196Z,966.67
2019-05-02T06:29:03.334Z,966.74
2019-05-02T06:30:03.379Z,966.76
2019-05-02T06:31:07.278Z,966.72
2019-05-02T06:32:03.519Z,966.72
2019-05-02T06:33:03.547Z,966.69
2019-05-02T06:34:07.198Z,966.74
2019-05-02T06:35:03.614Z,966.71
2019-05-02T06:36:03.668Z,966.73
2019-05-02T06:37:08.000Z,966.75
2019-05-02T06:38:03.757Z,966.76
2019-05-02T06:39:03.807Z,966.75
2019-05-02T06:40:08.143Z,966.78
2019-05-02T06:41:03.892Z,966.74
2019-05-02T06:42:03.959Z,966.76
2019-05-02T06:43:04.179Z,966.75
2019-05-02T06:44:04.066Z,966.77
2019-05-02T06:45:04.090Z,966.72
2019-05-02T06:46:15.401Z,966.75
2019-05-02T06:47:04.548Z,966.75
2019-05-02T06:48:04.260Z,966.73
2019-05-02T06:49:04.275Z,966.74
2019-05-02T06:50:04.334Z,966.71
2019-05-02T06:51:04.427Z,966.79
2019-05-02T06:52:04.436Z,966.79
2019-05-02T06:53:09.436Z,966.77
2019-05-02T06:54:04.590Z,966.78
2019-05-02T06:55:04.562Z,966.79
2019-05-02T06:56:07.990Z,966.78
2019-05-02T06:57:04.662Z,966.79
2019-05-02T06:58:08.065Z,966.78
2019-05-02T06:59:04.759Z,966.80
2019-05-02T07:00:06.611Z,966.77
2019-05-02T07:01:04.855Z,966.73
2019-05-02T07:02:04.914Z,966.71
2019-05-02T07:03:09.632Z,966.73
2019-05-02T07:04:05.032Z,966.73
2019-05-02T07:05:05.053Z,966.71
2019-05-02T07:06:07.513Z,966.73
2019-05-02T07:07:05.155Z,966.69
2019-05-02T07:08:06.564Z,966.72
2019-05-02T07:09:05.357Z,966.69
2019-05-02T07:10:07.341Z,966.70
2019-05-02T07:11:05.362Z,966.69
2019-05-02T07:12:05.416Z,966.67
2019-05-02T07:13:10.684Z,966.67
2019-05-02T07:14:12.898Z,966.65
2019-05-02T07:15:08.198Z,966.63
2019-05-02T07:16:10.267Z,966.63
2019-05-02T07:17:05.982Z,966.64
2019-05-02T07:18:10.756Z,966.62
2019-05-02T07:19:05.777Z,966.62
2019-05-02T07:20:05.917Z,966.59
2019-05-02T07:21:05.844Z,966.60
2019-05-02T07:22:05.892Z,966.55
2019-05-02T07:23:10.635Z,966.51
2019-05-02T07:24:06.015Z,966.54
2019-05-02T07:25:06.848Z,966.50
2019-05-02T07:26:06.111Z,966.53
2019-05-02T07:27:06.174Z,966.54
2019-05-02T07:28:09.421Z,966.54
2019-05-02T07:29:06.279Z,966.57
2019-05-02T07:30:06.290Z,966.56
2019-05-02T07:31:06.397Z,966.61
2019-05-02T07:32:06.432Z,966.65
2019-05-02T07:33:06.444Z,966.60
2019-05-02T07:34:08.032Z,966.58
2019-05-02T07:35:06.552Z,966.60
2019-05-02T07:36:06.602Z,966.61
2019-05-02T07:37:08.340Z,966.61
2019-05-02T07:38:06.699Z,966.64
2019-05-02T07:39:06.778Z,966.66
2019-05-02T07:40:06.793Z,966.65
2019-05-02T07:41:06.849Z,966.62
2019-05-02T07:42:07.943Z,966.62
2019-05-02T07:43:06.963Z,966.62
2019-05-02T07:44:07.019Z,966.64
2019-05-02T07:45:09.416Z,966.62
2019-05-02T07:46:07.103Z,966.57
2019-05-02T07:47:07.187Z,966.57
2019-05-02T07:48:07.196Z,966.56
2019-05-02T07:49:07.248Z,966.53
2019-05-02T07:50:10.358Z,966.52
2019-05-02T07:51:07.349Z,966.51
2019-05-02T07:52:07.398Z,966.50
2019-05-02T07:53:09.668Z,966.51
2019-05-02T07:54:07.501Z,966.54
2019-05-02T07:55:10.031Z,966.50
2019-05-02T07:56:07.601Z,966.50
2019-05-02T07:57:07.692Z,966.49
2019-05-02T07:58:08.250Z,966.50
2019-05-02T07:59:07.758Z,966.49
2019-05-02T08:00:07.829Z,966.45
2019-05-02T08:01:08.021Z,966.46
2019-05-02T08:02:07.907Z,966.46
2019-05-02T08:03:07.954Z,966.50
2019-05-02T08:04:11.219Z,966.41
2019-05-02T08:05:08.978Z,966.42
2019-05-02T08:06:08.118Z,966.43
2019-05-02T08:07:08.158Z,966.43
2019-05-02T08:08:08.209Z,966.38
2019-05-02T08:09:09.212Z,966.40
2019-05-02T08:10:08.349Z,966.39
2019-05-02T08:11:08.366Z,966.36
2019-05-02T08:12:08.415Z,966.36
2019-05-02T08:13:12.072Z,966.35
2019-05-02T08:14:08.518Z,966.35
2019-05-02T08:15:13.129Z,966.33
2019-05-02T08:16:08.623Z,966.35
2019-05-02T08:17:16.314Z,966.32
2019-05-02T08:18:08.737Z,966.31
2019-05-02T08:19:08.774Z,966.31
2019-05-02T08:20:08.852Z,966.28
2019-05-02T08:21:08.893Z,966.36
2019-05-02T08:22:13.361Z,966.32
2019-05-02T08:23:08.983Z,966.32
2019-05-02T08:24:09.117Z,966.38
2019-05-02T08:25:10.907Z,966.37
2019-05-02T08:26:09.156Z,966.37
2019-05-02T08:27:09.190Z,966.36
2019-05-02T08:28:10.019Z,966.37
2019-05-02T08:29:09.293Z,966.36
2019-05-02T08:30:09.346Z,966.36
2019-05-02T08:31:13.543Z,966.32
2019-05-02T08:32:09.447Z,966.36
2019-05-02T08:33:09.507Z,966.35
2019-05-02T08:34:14.737Z,966.35
2019-05-02T08:35:09.609Z,966.33
2019-05-02T08:36:09.677Z,966.35
2019-05-02T08:37:09.713Z,966.36
2019-05-02T08:38:12.536Z,966.33
2019-05-02T08:39:09.806Z,966.31
2019-05-02T08:40:10.736Z,966.30
2019-05-02T08:41:09.930Z,966.33
2019-05-02T08:42:09.965Z,966.31
2019-05-02T08:43:10.933Z,966.32
2019-05-02T08:44:10.057Z,966.35
2019-05-02T08:45:10.126Z,966.32
2019-05-02T08:46:14.481Z,966.32
2019-05-02T08:47:18.810Z,966.32
2019-05-02T08:48:10.263Z,966.34
2019-05-02T08:49:14.239Z,966.29
2019-05-02T08:50:10.394Z,966.31
2019-05-02T08:51:10.441Z,966.29
2019-05-02T08:52:10.495Z,966.31
2019-05-02T08:53:14.252Z,966.24
2019-05-02T08:54:10.585Z,966.26
2019-05-02T08:55:11.081Z,966.23
2019-05-02T08:56:10.784Z,966.24
2019-05-02T08:57:10.722Z,966.22
2019-05-02T08:58:14.470Z,966.23
2019-05-02T08:59:10.849Z,966.22
2019-05-02T09:00:10.899Z,966.20
2019-05-02T09:01:13.726Z,966.19
2019-05-02T09:02:10.999Z,966.20
2019-05-02T09:03:11.029Z,966.16
2019-05-02T09:04:11.088Z,966.13
2019-05-02T09:05:11.151Z,966.14
2019-05-02T09:06:11.208Z,966.13
2019-05-02T09:07:11.269Z,966.13
2019-05-02T09:08:14.546Z,966.12
2019-05-02T09:09:11.339Z,966.17
2019-05-02T09:10:11.388Z,966.13
2019-05-02T09:11:14.245Z,966.11
2019-05-02T09:12:13.239Z,966.10
2019-05-02T09:13:16.955Z,966.10
2019-05-02T09:14:12.571Z,966.07
2019-05-02T09:15:11.926Z,966.04
2019-05-02T09:16:12.095Z,966.00
2019-05-02T09:17:16.184Z,966.02
2019-05-02T09:18:12.403Z,966.01
2019-05-02T09:19:13.481Z,966.01
2019-05-02T09:20:18.734Z,966.01
2019-05-02T09:21:12.937Z,965.96
2019-05-02T09:22:13.223Z,965.97
2019-05-02T09:23:12.456Z,965.97
2019-05-02T09:24:13.567Z,965.96
2019-05-02T09:25:12.593Z,965.98
2019-05-02T09:26:12.231Z,965.96
2019-05-02T09:27:12.305Z,965.95
2019-05-02T09:28:12.600Z,965.95
2019-05-02T09:29:12.654Z,965.90
2019-05-02T09:30:16.932Z,965.91
2019-05-02T09:31:12.495Z,965.92
2019-05-02T09:32:12.710Z,965.88
2019-05-02T09:33:12.582Z,965.93
2019-05-02T09:34:16.954Z,965.89
2019-05-02T09:35:12.686Z,965.89
2019-05-02T09:36:12.742Z,965.85
2019-05-02T09:37:12.808Z,965.87
2019-05-02T09:38:16.124Z,965.86
2019-05-02T09:39:12.898Z,965.82
2019-05-02T09:40:16.722Z,965.86
2019-05-02T09:41:16.881Z,965.82
2019-05-02T09:42:15.644Z,965.80
2019-05-02T09:43:13.121Z,965.77
2019-05-02T09:44:14.561Z,965.74
2019-05-02T09:45:15.931Z,965.70
2019-05-02T09:46:16.577Z,965.71
2019-05-02T09:47:13.315Z,965.69
2019-05-02T09:48:17.233Z,965.61
2019-05-02T09:49:16.395Z,965.65
2019-05-02T09:50:13.469Z,965.62
2019-05-02T09:51:17.378Z,965.59
2019-05-02T09:52:13.570Z,965.61
2019-05-02T09:53:20.884Z,965.59
2019-05-02T09:54:13.673Z,965.54
2019-05-02T09:55:13.734Z,965.59
2019-05-02T09:56:13.791Z,965.56
2019-05-02T09:57:13.834Z,965.53
2019-05-02T09:58:19.577Z,965.49
2019-05-02T09:59:26.798Z,965.44
2019-05-02T10:00:13.989Z,965.48
2019-05-02T10:01:14.041Z,965.46
2019-05-02T10:02:14.096Z,965.53
2019-05-02T10:03:14.211Z,965.44
2019-05-02T10:04:14.198Z,965.44
2019-05-02T10:05:14.259Z,965.47
2019-05-02T10:06:18.161Z,965.48
2019-05-02T10:07:15.528Z,965.49
2019-05-02T10:08:14.478Z,965.45
2019-05-02T10:09:18.577Z,965.44
2019-05-02T10:10:14.522Z,965.41
2019-05-02T10:11:16.859Z,965.42
2019-05-02T10:12:14.626Z,965.40
2019-05-02T10:13:14.704Z,965.33
2019-05-02T10:14:14.785Z,965.40
2019-05-02T10:15:14.783Z,965.39
2019-05-02T10:16:18.019Z,965.34
2019-05-02T10:17:14.888Z,965.34
2019-05-02T10:18:19.485Z,965.34
2019-05-02T10:19:15.013Z,965.32
2019-05-02T10:20:15.057Z,965.31
2019-05-02T10:21:17.155Z,965.31
2019-05-02T10:22:15.156Z,965.29
2019-05-02T10:23:19.581Z,965.31
2019-05-02T10:24:15.287Z,965.28
2019-05-02T10:25:15.299Z,965.25
2019-05-02T10:26:20.095Z,965.25
2019-05-02T10:27:15.409Z,965.24
2019-05-02T10:28:15.469Z,965.25
2019-05-02T10:29:15.549Z,965.18
2019-05-02T10:30:15.815Z,965.19
2019-05-02T10:31:15.620Z,965.19
2019-05-02T10:32:16.755Z,965.16
2019-05-02T10:33:15.725Z,965.14
2019-05-02T10:34:17.599Z,965.18
2019-05-02T10:35:15.844Z,965.19
2019-05-02T10:36:19.628Z,965.19
2019-05-02T10:37:15.940Z,965.15
2019-05-02T10:38:19.336Z,965.09
2019-05-02T10:39:16.078Z,965.12
2019-05-02T10:40:17.241Z,965.10
2019-05-02T10:41:16.228Z,965.14
2019-05-02T10:42:16.187Z,965.10
2019-05-02T10:43:16.243Z,965.10
2019-05-02T10:44:16.312Z,965.13
2019-05-02T10:45:16.800Z,965.08
2019-05-02T10:46:16.397Z,965.07
2019-05-02T10:47:16.452Z,965.07
2019-05-02T10:48:25.818Z,965.05
2019-05-02T10:49:16.586Z,965.04
2019-05-02T10:50:16.604Z,964.99
2019-05-02T10:51:16.657Z,964.99
2019-05-02T10:52:16.714Z,965.03
2019-05-02T10:53:16.762Z,964.98
2019-05-02T10:54:16.849Z,964.97
2019-05-02T10:55:16.899Z,964.94
2019-05-02T10:56:16.922Z,964.94
2019-05-02T10:57:16.975Z,964.90
2019-05-02T10:58:17.024Z,964.92
2019-05-02T10:59:17.094Z,964.89
2019-05-02T11:00:17.152Z,964.90
2019-05-02T11:01:17.182Z,964.89
2019-05-02T11:02:17.244Z,964.84
2019-05-02T11:03:17.292Z,964.87
2019-05-02T11:04:17.346Z,964.81
2019-05-02T11:05:22.583Z,964.79
2019-05-02T11:06:17.441Z,964.79
2019-05-02T11:07:22.578Z,964.77
2019-05-02T11:08:17.547Z,964.76
2019-05-02T11:09:22.512Z,964.73
2019-05-02T11:10:17.673Z,964.74
2019-05-02T11:11:17.713Z,964.71
2019-05-02T11:12:24.284Z,964.69
2019-05-02T11:13:17.845Z,964.69
2019-05-02T11:14:17.866Z,964.72
2019-05-02T11:15:17.949Z,964.71
2019-05-02T11:16:17.975Z,964.67
2019-05-02T11:17:18.226Z,964.69
2019-05-02T11:18:18.096Z,964.67
2019-05-02T11:19:18.185Z,964.62
2019-05-02T11:20:18.214Z,964.67
2019-05-02T11:21:18.872Z,964.66
2019-05-02T11:22:18.311Z,964.65
2019-05-02T11:23:18.348Z,964.62
2019-05-02T11:24:18.417Z,964.64
2019-05-02T11:25:18.474Z,964.63
2019-05-02T11:26:21.549Z,964.56
2019-05-02T11:27:18.565Z,964.60
2019-05-02T11:28:18.628Z,964.56
2019-05-02T11:29:18.671Z,964.55
2019-05-02T11:30:24.956Z,964.53
2019-05-02T11:31:18.862Z,964.50
2019-05-02T11:32:19.005Z,964.48
2019-05-02T11:33:18.943Z,964.48
2019-05-02T11:34:18.986Z,964.47
2019-05-02T11:35:19.074Z,964.45
2019-05-02T11:36:19.047Z,964.47
2019-05-02T11:37:19.100Z,964.46
2019-05-02T11:38:39.595Z,964.46
2019-05-02T11:39:26.495Z,964.39
2019-05-02T11:40:19.286Z,964.37
2019-05-02T11:41:19.337Z,964.36
2019-05-02T11:42:23.198Z,964.37
2019-05-02T11:43:19.420Z,964.35
2019-05-02T11:44:19.472Z,964.33
2019-05-02T11:45:19.524Z,964.37
2019-05-02T11:46:21.607Z,964.37
2019-05-02T11:47:24.935Z,964.34
2019-05-02T11:48:19.843Z,964.33
2019-05-02T11:49:19.736Z,964.29
2019-05-02T11:50:19.802Z,964.33
2019-05-02T11:51:19.875Z,964.28
2019-05-02T11:52:19.906Z,964.26
2019-05-02T11:53:28.875Z,964.27
2019-05-02T11:54:20.023Z,964.26
2019-05-02T11:55:24.763Z,964.25
2019-05-02T11:56:22.048Z,964.24
2019-05-02T11:57:21.305Z,964.22
2019-05-02T11:58:20.224Z,964.22
2019-05-02T11:59:27.390Z,964.24
2019-05-02T12:00:21.839Z,964.20
2019-05-02T12:01:35.019Z,964.18
2019-05-02T12:02:21.960Z,964.23
2019-05-02T12:03:21.926Z,964.20
2019-05-02T12:04:21.528Z,964.23
2019-05-02T12:05:22.188Z,964.22
2019-05-02T12:06:22.329Z,964.21
2019-05-02T12:07:22.956Z,964.19
2019-05-02T12:08:22.097Z,964.16
2019-05-02T12:09:22.309Z,964.15
2019-05-02T12:10:21.615Z,964.16
2019-05-02T12:11:22.819Z,964.10
2019-05-02T12:12:22.654Z,964.09
2019-05-02T12:13:22.654Z,964.07
2019-05-02T12:14:22.863Z,964.11
2019-05-02T12:15:21.705Z,964.07
2019-05-02T12:16:23.015Z,964.09
2019-05-02T12:17:21.755Z,964.11
2019-05-02T12:18:23.154Z,964.07
2019-05-02T12:19:22.829Z,964.08
2019-05-02T12:20:22.754Z,964.03
2019-05-02T12:21:22.858Z,964.09
2019-05-02T12:22:22.602Z,964.06
2019-05-02T12:23:22.621Z,964.04
2019-05-02T12:24:22.171Z,964.03
2019-05-02T12:25:22.360Z,964.09
2019-05-02T12:26:22.160Z,963.98
2019-05-02T12:27:22.116Z,964.04
2019-05-02T12:28:22.939Z,964.01
2019-05-02T12:29:21.923Z,963.94